ilmateenistus.ee keskkonnaagentuur.ee
EETN Tallinna lennuväli
FTEO31 EETN 200500
TAF EETN 200510Z 2006/2106 25010KT CAVOK BECMG 2009/2011 9999 BKN015
    TEMPO 2100/2106 2000 RA BR BKN003 BECMG 2104/2106 33014KT=

METAR EETN 200850Z 22012KT 190V250 CAVOK 16/07 Q1016 NOSIG=
Tallinna lennuväli
EEKA Kärdla lennuväli
FCEO32 EETN 200300 AAA
TAF AMD EEKA 200700Z 2004/2010 CNL=

METAR EEKA 200850Z 24010KT CAVOK 12/07 Q1018=
Kärdla lennuväli
EEKE Kuressaare lennuväli
FCEO32 EETN 200500 AAA
TAF AMD EEKE 200755Z 2008/2012 23014KT 3000 BR BCFG BKN003 TEMPO
    2008/2012 0500 FG VV001=

METAR EEKE 200850Z 25011KT 220V290 1500 R17/2000 BR SCT002 OVC005 06/06 Q1020=
Kuressaare lennuväli
EEPU Pärnu lennuväli
METAR EEPU 200850Z 20010KT 140V230 9999 SCT045 09/05 Q1020=
Pärnu lennuväli
EETU Tartu lennuväli
METAR EETU 200850Z AUTO 24008KT 210V270 9999 FEW200/// 12/03 Q1020=
Tartu lennuväli
EEEI Ämari lennuväli
METAR EEEI 200850Z 22014KT CAVOK 16/07 Q1016 R06/090095 NOSIG=
Ämari lennuväli